Mineralnyye Vody Airport

Jump to: basic info | weather | frequencies | runways | comments

Related pages: nearby airports | nearby navaids | notams | map

Basic information (top)

Codes: MRV URMM
Location: lon 44.225101, lat 43.081902, elev 1,054 ft / 321 m msl
Status: medium_airport
Scheduled airline service: yes
Links: Wikipedia Mobile

Weather (top)

Current conditions (rec'd 2014/04/21 09:30Z):

URMM 210930Z 35003G05MPS 9999 OVC020CB 13/09 Q1016 R30/CLRD70 NOSIG RMK MT OBSC QFE734/0979

Airport forecast (rec'd 2014/04/21 09:23Z):

TAF URMM 210757Z 2109/2209 30003G08MPS 9999 BKN020CB 
      TEMPO 2109/2115 VRB07G12MPS 1200 TSRA BKN004 BKN020CB 530002 
     FM211500 08003G08MPS 3000 -SHRA BR BKN007 BKN010CB 
      TEMPO 2115/2209 1200 SHRA BKN004 BKN010CB

Frequencies (top)

Verify before use: may be inaccurate or out of date.

APP: 119.3 MHz (APP)
ATIS: 127.4 MHz (ATIS)
GND: 121.9 MHz (TAXIING)
RDR: 120.7 MHz (KRUG)
TWR: 128 MHz (START)

Runways (top)

12/30: 12,795 x 197 ft (3,900 x 60 m) — paved — lighted

Latest comments (top)

No comments yet for Mineralnyye Vody Airport

More... (top)

See also NOTAMs and nearby airports and navaids, or visit the Mineralnyye Vody Airport page at the main OurAirports website..